Time;durP1;ratioP1;P1;durP2;ratioP2;P2;SDS_P1;SDS_P2;PMS_P1;PMS_P2;Temp;Humidity;BMP_temperature;BMP_pressure;BME280_temperature;BME280_humidity;BME280_pressure;Samples;Min_cycle;Max_cycle;Signal;HPM_P1;HPM_P2
2023/08/16 00:01:31;;;;;;;;;;;21.10;71.50;;;;;;5128580;28;20378;-66
2023/08/16 00:03:56;;;;;;;;;;;21.10;71.40;;;;;;5112830;28;19920;-66
2023/08/16 00:06:22;;;;;;;;;;;21.10;71.40;;;;;;5112532;28;20018;-65
2023/08/16 00:08:48;;;;;;;;;;;21.00;71.30;;;;;;5094714;28;19962;-65
2023/08/16 00:11:14;;;;;;;;;;;21.10;71.40;;;;;;5094602;28;19948;-65
2023/08/16 00:13:39;;;;;;;;;;;21.10;71.40;;;;;;5112602;28;19920;-65
2023/08/16 00:16:05;;;;;;;;;;;21.10;71.40;;;;;;5094640;28;19919;-65
2023/08/16 00:18:31;;;;;;;;;;;21.10;71.40;;;;;;5112723;28;19924;-66
2023/08/16 00:20:58;;;;;;;;;;;21.10;71.40;;;;;;5094554;28;19920;-65
2023/08/16 00:23:23;;;;;;;;;;;21.00;71.30;;;;;;5112494;28;20375;-70
2023/08/16 00:25:49;;;;;;;;;;;21.00;71.30;;;;;;5112315;28;19926;-66
2023/08/16 00:28:14;;;;;;;;;;;21.00;71.20;;;;;;5094490;28;19927;-66
2023/08/16 00:30:40;;;;;;;;;;;21.00;71.30;;;;;;5111764;28;20387;-65
2023/08/16 00:33:06;;;;;;;;;;;21.00;71.20;;;;;;5094149;28;19964;-65
2023/08/16 00:35:31;;;;;;;;;;;21.00;71.20;;;;;;5094393;28;19923;-66
2023/08/16 00:37:58;;;;;;;;;;;21.00;71.20;;;;;;5112407;28;20389;-66
2023/08/16 00:40:24;;;;;;;;;;;21.00;71.20;;;;;;5094353;28;19927;-66
2023/08/16 00:42:49;;;;;;;;;;;21.00;71.20;;;;;;5112264;28;19920;-65
2023/08/16 00:45:15;;;;;;;;;;;21.00;71.20;;;;;;5094045;28;19954;-65
2023/08/16 00:47:41;;;;;;;;;;;21.00;71.10;;;;;;5093677;28;20013;-66
2023/08/16 00:50:07;;;;;;;;;;;21.00;71.20;;;;;;5094306;28;20355;-66
2023/08/16 00:52:33;;;;;;;;;;;21.00;71.20;;;;;;5094246;28;20423;-65
2023/08/16 00:54:58;;;;;;;;;;;21.00;71.10;;;;;;5114950;28;19935;-66
2023/08/16 00:57:24;;;;;;;;;;;20.90;71.10;;;;;;5097744;28;19962;-68
2023/08/16 00:59:49;;;;;;;;;;;21.00;71.10;;;;;;5116117;28;19923;-66
2023/08/16 01:02:15;;;;;;;;;;;20.90;71.00;;;;;;5097797;28;19968;-66
2023/08/16 01:04:41;;;;;;;;;;;20.90;71.10;;;;;;5115819;28;20379;-66
2023/08/16 01:07:07;;;;;;;;;;;20.90;71.70;;;;;;5131570;27;19960;-65
2023/08/16 01:09:32;;;;;;;;;;;20.90;71.00;;;;;;5115636;28;19924;-66
2023/08/16 01:12:02;;;;;;;;;;;20.90;71.00;;;;;;5115552;28;19972;-66
2023/08/16 01:17:09;;;;;;;;;;;20.90;71.00;;;;;;5090266;28;19912;-66
2023/08/16 01:19:35;;;;;;;;;;;20.90;70.90;;;;;;5088626;28;19920;-65
2023/08/16 01:22:08;;;;;;;;;;;20.90;70.90;;;;;;5088562;28;19931;-65
2023/08/16 01:24:38;;;;;;;;;;;20.90;70.90;;;;;;5088862;28;19921;-66
2023/08/16 01:27:04;;;;;;;;;;;20.90;70.90;;;;;;5088414;28;19927;-66
2023/08/16 01:29:30;;;;;;;;;;;20.90;70.90;;;;;;5088773;28;19920;-66
2023/08/16 01:31:56;;;;;;;;;;;20.80;70.80;;;;;;5088539;28;19926;-65
2023/08/16 01:34:21;;;;;;;;;;;20.80;70.80;;;;;;5088568;28;19920;-66
2023/08/16 01:36:47;;;;;;;;;;;20.90;70.80;;;;;;5089512;28;19929;-65
2023/08/16 01:39:13;;;;;;;;;;;20.80;70.80;;;;;;5088538;28;19927;-66
2023/08/16 01:41:41;;;;;;;;;;;20.80;70.80;;;;;;5089468;28;20387;-66
2023/08/16 01:44:07;;;;;;;;;;;20.80;70.80;;;;;;5088375;28;19920;-66
2023/08/16 01:46:33;;;;;;;;;;;20.80;70.70;;;;;;5088477;28;19927;-65
2023/08/16 01:48:59;;;;;;;;;;;20.80;71.50;;;;;;5088051;28;20375;-66
2023/08/16 01:51:24;;;;;;;;;;;20.80;70.70;;;;;;5088432;28;19989;-66
2023/08/16 01:53:52;;;;;;;;;;;20.80;70.70;;;;;;5089293;28;20383;-66
2023/08/16 01:56:17;;;;;;;;;;;20.80;70.70;;;;;;5087914;28;20094;-66
2023/08/16 01:58:43;;;;;;;;;;;20.80;70.60;;;;;;5087923;28;20003;-65
2023/08/16 02:01:08;;;;;;;;;;;20.80;70.60;;;;;;5088159;28;19920;-66
2023/08/16 02:03:34;;;;;;;;;;;20.80;70.60;;;;;;5087761;28;19926;-65
2023/08/16 02:05:59;;;;;;;;;;;20.80;70.60;;;;;;5088104;28;19929;-66
2023/08/16 02:08:24;;;;;;;;;;;20.80;70.60;;;;;;5087640;28;20038;-66
2023/08/16 02:10:50;;;;;;;;;;;20.80;70.60;;;;;;5087692;28;20386;-65
2023/08/16 02:13:15;;;;;;;;;;;20.80;70.60;;;;;;5087928;28;19921;-65
2023/08/16 02:15:41;;;;;;;;;;;20.80;70.60;;;;;;5087247;28;19978;-65
2023/08/16 02:18:10;;;;;;;;;;;20.80;71.30;;;;;;5087756;28;19924;-65
2023/08/16 02:20:38;;;;;;;;;;;20.80;70.50;;;;;;5087442;28;19948;-65
2023/08/16 02:23:04;;;;;;;;;;;20.70;70.40;;;;;;5104779;28;20367;-65
2023/08/16 02:25:30;;;;;;;;;;;20.70;70.40;;;;;;5087636;28;19965;-65
2023/08/16 02:27:55;;;;;;;;;;;20.70;70.50;;;;;;5076840;28;20310;-65
2023/08/16 02:30:21;;;;;;;;;;;20.70;70.80;;;;;;5074015;28;19921;-71
2023/08/16 02:32:46;;;;;;;;;;;20.70;70.40;;;;;;5074043;28;20376;-65
2023/08/16 02:35:12;;;;;;;;;;;20.70;70.40;;;;;;5073964;28;19924;-65
2023/08/16 02:37:37;;;;;;;;;;;20.70;70.40;;;;;;5074979;28;19920;-66
2023/08/16 02:40:03;;;;;;;;;;;20.70;70.40;;;;;;5073858;28;19920;-70
2023/08/16 02:42:29;;;;;;;;;;;20.70;70.40;;;;;;5073871;28;19928;-66
2023/08/16 02:44:54;;;;;;;;;;;20.70;70.40;;;;;;5073461;28;19920;-65
2023/08/16 02:47:20;;;;;;;;;;;20.70;70.40;;;;;;5073841;28;20282;-66
2023/08/16 02:49:46;;;;;;;;;;;20.70;70.40;;;;;;5073409;28;20314;-66
2023/08/16 02:52:12;;;;;;;;;;;20.70;70.40;;;;;;5073727;28;19921;-65
2023/08/16 02:54:38;;;;;;;;;;;20.70;70.40;;;;;;5073341;28;19920;-65
2023/08/16 02:57:03;;;;;;;;;;;20.70;70.40;;;;;;5073317;28;19931;-65
2023/08/16 02:59:38;;;;;;;;;;;20.70;70.40;;;;;;5074519;28;20015;-65
2023/08/16 03:02:03;;;;;;;;;;;20.70;71.10;;;;;;5073339;28;19920;-65
2023/08/16 03:04:29;;;;;;;;;;;20.60;70.30;;;;;;5073524;28;19943;-65
2023/08/16 03:06:54;;;;;;;;;;;20.60;70.30;;;;;;5073350;28;19924;-71
2023/08/16 03:09:20;;;;;;;;;;;20.60;70.30;;;;;;5074405;28;19982;-70
2023/08/16 03:11:45;;;;;;;;;;;20.60;70.30;;;;;;5074212;28;19920;-65
2023/08/16 03:14:11;;;;;;;;;;;20.60;70.30;;;;;;5074203;28;19921;-66
2023/08/16 03:16:36;;;;;;;;;;;20.60;70.40;;;;;;5073952;28;19931;-67
2023/08/16 03:19:01;;;;;;;;;;;20.60;70.40;;;;;;5072829;28;19950;-65
2023/08/16 03:21:27;;;;;;;;;;;20.60;70.40;;;;;;5073077;28;20009;-66
2023/08/16 03:23:52;;;;;;;;;;;20.60;70.40;;;;;;5074203;28;20405;-65
2023/08/16 03:26:18;;;;;;;;;;;20.50;70.40;;;;;;5072774;28;19920;-70
2023/08/16 03:28:43;;;;;;;;;;;20.50;70.40;;;;;;5072989;28;19970;-65
2023/08/16 03:31:09;;;;;;;;;;;20.60;70.50;;;;;;5073983;28;19920;-65
2023/08/16 03:33:34;;;;;;;;;;;20.50;70.40;;;;;;5072693;28;19924;-66
2023/08/16 03:36:00;;;;;;;;;;;20.50;70.40;;;;;;5072582;28;19928;-66
2023/08/16 03:38:25;;;;;;;;;;;20.50;70.40;;;;;;5071972;28;19920;-66
2023/08/16 03:40:51;;;;;;;;;;;20.50;70.40;;;;;;5072666;28;19954;-65
2023/08/16 03:43:16;;;;;;;;;;;20.50;70.40;;;;;;5072631;28;19920;-65
2023/08/16 03:45:42;;;;;;;;;;;20.50;70.40;;;;;;5072687;28;19927;-65
2023/08/16 03:48:07;;;;;;;;;;;20.50;70.40;;;;;;5072275;28;20402;-65
2023/08/16 03:50:32;;;;;;;;;;;20.50;70.40;;;;;;5072609;28;19921;-66
2023/08/16 03:52:58;;;;;;;;;;;20.50;70.40;;;;;;5072514;28;19920;-65
2023/08/16 03:55:23;;;;;;;;;;;20.40;70.30;;;;;;5072111;28;19993;-66
2023/08/16 03:57:49;;;;;;;;;;;20.50;70.40;;;;;;5073371;28;19921;-65
2023/08/16 04:00:16;;;;;;;;;;;20.40;70.30;;;;;;5072345;28;19921;-65
2023/08/16 04:02:41;;;;;;;;;;;20.40;70.30;;;;;;5071922;28;20405;-65
2023/08/16 04:05:08;;;;;;;;;;;20.50;70.40;;;;;;5073502;28;19926;-65
2023/08/16 04:07:33;;;;;;;;;;;20.50;70.40;;;;;;5072141;28;20010;-65
2023/08/16 04:09:59;;;;;;;;;;;20.40;70.40;;;;;;5071364;28;20055;-65
2023/08/16 04:12:24;;;;;;;;;;;20.40;70.40;;;;;;5071932;28;19970;-66
2023/08/16 04:14:50;;;;;;;;;;;20.40;70.40;;;;;;5071699;28;19930;-65
2023/08/16 04:17:15;;;;;;;;;;;20.40;70.40;;;;;;5073293;28;20349;-65
2023/08/16 04:19:41;;;;;;;;;;;20.40;70.40;;;;;;5071915;28;20019;-71
2023/08/16 04:22:06;;;;;;;;;;;20.40;70.40;;;;;;5072024;28;19971;-66
2023/08/16 04:24:32;;;;;;;;;;;20.40;70.30;;;;;;5071598;28;19967;-65
2023/08/16 04:26:57;;;;;;;;;;;20.40;70.30;;;;;;5072923;28;19966;-71
2023/08/16 04:29:24;;;;;;;;;;;20.40;70.40;;;;;;5071813;28;19943;-65
2023/08/16 04:31:50;;;;;;;;;;;20.40;70.30;;;;;;5072727;28;19924;-66
2023/08/16 04:34:15;;;;;;;;;;;20.40;70.30;;;;;;5071722;28;19927;-66
2023/08/16 04:36:41;;;;;;;;;;;20.40;70.30;;;;;;5072833;28;19927;-66
2023/08/16 04:39:07;;;;;;;;;;;20.40;70.30;;;;;;5071738;28;20273;-66
2023/08/16 04:41:33;;;;;;;;;;;20.30;70.20;;;;;;5071400;28;19920;-65
2023/08/16 04:43:58;;;;;;;;;;;20.30;70.20;;;;;;5072591;28;19920;-65
2023/08/16 04:46:24;;;;;;;;;;;20.30;70.20;;;;;;5072515;28;20375;-71
2023/08/16 04:48:49;;;;;;;;;;;20.30;70.20;;;;;;5071547;28;19971;-65
2023/08/16 04:51:15;;;;;;;;;;;20.30;70.20;;;;;;5071062;28;20386;-65
2023/08/16 04:53:41;;;;;;;;;;;20.30;70.20;;;;;;5071472;28;19924;-65
2023/08/16 04:56:06;;;;;;;;;;;20.30;70.20;;;;;;5071248;28;19921;-66
2023/08/16 04:58:32;;;;;;;;;;;20.30;70.20;;;;;;5071188;28;19925;-65
2023/08/16 05:00:57;;;;;;;;;;;20.30;70.20;;;;;;5071315;28;19920;-65
2023/08/16 05:03:23;;;;;;;;;;;20.30;70.20;;;;;;5071396;28;20364;-65
2023/08/16 05:05:54;;;;;;;;;;;20.30;70.20;;;;;;5071476;28;20010;-65
2023/08/16 05:08:19;;;;;;;;;;;20.30;70.20;;;;;;5088172;28;19921;-71
2023/08/16 05:10:45;;;;;;;;;;;20.30;70.10;;;;;;5071331;28;20402;-71
2023/08/16 05:13:10;;;;;;;;;;;20.30;70.10;;;;;;5072321;28;19928;-65
2023/08/16 05:15:36;;;;;;;;;;;20.30;70.10;;;;;;5070623;28;19946;-71
2023/08/16 05:18:01;;;;;;;;;;;20.30;70.10;;;;;;5072175;28;19963;-66
2023/08/16 05:20:27;;;;;;;;;;;20.20;70.10;;;;;;5071198;28;19927;-66
2023/08/16 05:22:52;;;;;;;;;;;20.30;70.10;;;;;;5071422;28;19920;-65
2023/08/16 05:25:18;;;;;;;;;;;20.30;70.10;;;;;;5072235;28;19921;-71
2023/08/16 05:27:44;;;;;;;;;;;20.20;70.10;;;;;;5072268;28;19943;-65
2023/08/16 05:30:09;;;;;;;;;;;20.20;70.10;;;;;;5071072;28;19926;-66
2023/08/16 05:32:35;;;;;;;;;;;20.20;70.10;;;;;;5071037;28;19920;-66
2023/08/16 05:35:00;;;;;;;;;;;20.20;70.10;;;;;;5070715;28;20030;-65
2023/08/16 05:37:26;;;;;;;;;;;20.20;70.10;;;;;;5072041;28;19920;-66
2023/08/16 05:39:51;;;;;;;;;;;20.20;70.90;;;;;;5071068;28;19927;-65
2023/08/16 05:42:17;;;;;;;;;;;20.20;70.10;;;;;;5070951;28;19921;-66
2023/08/16 05:44:42;;;;;;;;;;;20.20;70.10;;;;;;5070670;28;19920;-71
2023/08/16 05:47:08;;;;;;;;;;;20.20;70.10;;;;;;5070910;28;19920;-66
2023/08/16 05:49:33;;;;;;;;;;;20.20;70.10;;;;;;5070929;28;19921;-65
2023/08/16 05:51:59;;;;;;;;;;;20.20;70.10;;;;;;5072063;28;19972;-65
2023/08/16 05:54:24;;;;;;;;;;;20.20;70.10;;;;;;5070906;28;19963;-65
2023/08/16 05:56:50;;;;;;;;;;;20.20;70.10;;;;;;5070438;28;19928;-65
2023/08/16 05:59:15;;;;;;;;;;;20.20;70.20;;;;;;5070865;28;19970;-65
2023/08/16 06:01:41;;;;;;;;;;;20.20;70.10;;;;;;5071927;28;19920;-72
2023/08/16 06:04:06;;;;;;;;;;;20.20;70.20;;;;;;5074593;28;19986;-65
2023/08/16 06:06:32;;;;;;;;;;;20.20;70.20;;;;;;5074202;28;20007;-65
2023/08/16 06:08:57;;;;;;;;;;;20.20;70.20;;;;;;5074238;28;19920;-65
2023/08/16 06:11:23;;;;;;;;;;;20.20;70.20;;;;;;5074463;28;19921;-65
2023/08/16 06:13:48;;;;;;;;;;;20.20;70.20;;;;;;5075376;28;20397;-65
2023/08/16 06:16:14;;;;;;;;;;;20.20;70.20;;;;;;5073823;28;19954;-65
2023/08/16 06:18:39;;;;;;;;;;;20.20;70.20;;;;;;5074146;28;20375;-65
2023/08/16 06:21:05;;;;;;;;;;;20.20;70.20;;;;;;5074202;28;19920;-66
2023/08/16 06:23:31;;;;;;;;;;;20.20;70.20;;;;;;5073901;28;20023;-71
2023/08/16 06:25:56;;;;;;;;;;;20.20;70.20;;;;;;5074250;28;19928;-66
2023/08/16 06:28:21;;;;;;;;;;;20.20;70.20;;;;;;5075074;28;19921;-66
2023/08/16 06:30:47;;;;;;;;;;;20.20;70.20;;;;;;5074092;28;20293;-65
2023/08/16 06:33:13;;;;;;;;;;;20.20;70.20;;;;;;5074970;28;19965;-66
2023/08/16 06:35:39;;;;;;;;;;;20.20;70.20;;;;;;5073602;28;19925;-66
2023/08/16 06:38:06;;;;;;;;;;;20.20;70.20;;;;;;5073927;28;19921;-65
2023/08/16 06:40:32;;;;;;;;;;;20.20;70.20;;;;;;5073646;28;19928;-66
2023/08/16 06:42:57;;;;;;;;;;;20.20;70.20;;;;;;5073827;28;19949;-65
2023/08/16 06:45:23;;;;;;;;;;;20.20;70.20;;;;;;5073489;28;19927;-66
2023/08/16 06:47:49;;;;;;;;;;;20.20;70.30;;;;;;5073846;28;19967;-65
2023/08/16 06:50:14;;;;;;;;;;;20.20;70.20;;;;;;5073483;28;19966;-65
2023/08/16 06:52:42;;;;;;;;;;;20.20;70.20;;;;;;5073684;28;19967;-66
2023/08/16 06:55:08;;;;;;;;;;;20.30;70.30;;;;;;5074957;28;19927;-66
2023/08/16 06:57:33;;;;;;;;;;;20.20;70.30;;;;;;5073368;28;19920;-65
2023/08/16 06:59:59;;;;;;;;;;;20.20;70.20;;;;;;5073296;28;19920;-66
2023/08/16 07:02:24;;;;;;;;;;;20.20;70.30;;;;;;5073210;28;19920;-65
2023/08/16 07:04:50;;;;;;;;;;;20.20;70.20;;;;;;5074421;28;19924;-65
2023/08/16 07:07:15;;;;;;;;;;;20.30;70.30;;;;;;5073445;28;19927;-66
2023/08/16 07:09:41;;;;;;;;;;;20.20;70.20;;;;;;5073153;28;19920;-65
2023/08/16 07:12:07;;;;;;;;;;;20.20;70.20;;;;;;5073228;28;19925;-66
2023/08/16 07:14:32;;;;;;;;;;;20.20;70.20;;;;;;5074298;28;19921;-66
2023/08/16 07:16:58;;;;;;;;;;;20.20;70.20;;;;;;5074097;28;20058;-65
2023/08/16 07:19:23;;;;;;;;;;;20.20;70.20;;;;;;5072836;28;20367;-65
2023/08/16 07:21:49;;;;;;;;;;;20.20;70.20;;;;;;5073219;28;19970;-65
2023/08/16 07:24:14;;;;;;;;;;;20.30;70.20;;;;;;5074151;28;19920;-65
2023/08/16 07:26:40;;;;;;;;;;;20.20;70.20;;;;;;5074277;28;20272;-65
2023/08/16 07:29:06;;;;;;;;;;;20.30;70.30;;;;;;5072700;28;19969;-65
2023/08/16 07:31:32;;;;;;;;;;;20.30;70.30;;;;;;5073109;28;19921;-65
2023/08/16 07:33:57;;;;;;;;;;;20.30;70.30;;;;;;5072619;28;19943;-65
2023/08/16 07:36:23;;;;;;;;;;;20.30;70.30;;;;;;5072576;28;20042;-71
2023/08/16 07:38:48;;;;;;;;;;;20.30;70.30;;;;;;5072613;28;20291;-66
2023/08/16 07:41:15;;;;;;;;;;;20.30;70.30;;;;;;5072445;28;20166;-65
2023/08/16 07:43:40;;;;;;;;;;;20.30;70.30;;;;;;5072773;28;19931;-65
2023/08/16 07:46:05;;;;;;;;;;;20.30;70.30;;;;;;5072668;28;19920;-66
2023/08/16 07:48:31;;;;;;;;;;;20.30;70.40;;;;;;5073666;28;19920;-65
2023/08/16 07:50:57;;;;;;;;;;;20.30;70.40;;;;;;5072645;28;19927;-65
2023/08/16 07:53:22;;;;;;;;;;;20.30;70.40;;;;;;5072476;28;19920;-65
2023/08/16 07:55:48;;;;;;;;;;;20.30;70.40;;;;;;5072110;28;19955;-66
2023/08/16 07:58:15;;;;;;;;;;;20.30;70.40;;;;;;5072092;28;19920;-66
2023/08/16 08:00:42;;;;;;;;;;;20.30;70.40;;;;;;5072094;28;19986;-66
2023/08/16 08:03:09;;;;;;;;;;;20.30;70.40;;;;;;5072284;28;19936;-66
2023/08/16 08:05:35;;;;;;;;;;;20.30;70.40;;;;;;5071975;28;19985;-65
2023/08/16 08:08:01;;;;;;;;;;;20.30;70.40;;;;;;5072224;28;19990;-66
2023/08/16 08:10:26;;;;;;;;;;;20.30;71.20;;;;;;5071892;28;20451;-66
2023/08/16 08:12:52;;;;;;;;;;;20.30;70.40;;;;;;5072211;28;19927;-66
2023/08/16 08:15:17;;;;;;;;;;;20.30;70.40;;;;;;5071683;28;19994;-66
2023/08/16 08:17:44;;;;;;;;;;;20.30;70.50;;;;;;5073161;28;19942;-66
2023/08/16 08:20:14;;;;;;;;;;;20.30;70.40;;;;;;5071225;28;19920;-65
2023/08/16 08:22:39;;;;;;;;;;;20.30;70.50;;;;;;5071647;28;19963;-65
2023/08/16 08:25:05;;;;;;;;;;;20.30;70.40;;;;;;5071518;28;19958;-66
2023/08/16 08:27:31;;;;;;;;;;;20.30;70.40;;;;;;5071578;28;20406;-66
2023/08/16 08:29:56;;;;;;;;;;;20.40;70.50;;;;;;5073027;28;19974;-71
2023/08/16 08:32:22;;;;;;;;;;;20.30;70.40;;;;;;5071724;28;19921;-66
2023/08/16 08:34:47;;;;;;;;;;;20.30;70.40;;;;;;5072052;28;19928;-66
2023/08/16 08:37:13;;;;;;;;;;;20.30;70.40;;;;;;5069371;28;19944;-66
2023/08/16 08:39:38;;;;;;;;;;;20.40;70.50;;;;;;5071067;28;19942;-68
2023/08/16 08:42:07;;;;;;;;;;;20.40;70.50;;;;;;5072679;28;19921;-66
2023/08/16 08:44:33;;;;;;;;;;;20.40;70.60;;;;;;5069729;28;19927;-64
2023/08/16 08:46:59;;;;;;;;;;;20.50;70.70;;;;;;5071229;28;19927;-64
2023/08/16 08:49:25;;;;;;;;;;;20.60;70.80;;;;;;5071261;28;19920;-64
2023/08/16 08:51:50;;;;;;;;;;;20.60;70.90;;;;;;5071293;28;20307;-64
2023/08/16 08:54:16;;;;;;;;;;;20.70;70.80;;;;;;5071127;28;19927;-66
2023/08/16 08:56:42;;;;;;;;;;;20.80;70.90;;;;;;5071201;28;19931;-66
2023/08/16 08:59:08;;;;;;;;;;;20.80;70.80;;;;;;5071455;28;19973;-67
2023/08/16 09:01:34;;;;;;;;;;;20.90;70.80;;;;;;5071301;28;19925;-66
2023/08/16 09:04:01;;;;;;;;;;;20.90;70.80;;;;;;5071078;28;19921;-65
2023/08/16 09:06:27;;;;;;;;;;;20.90;70.80;;;;;;5072410;28;20398;-66
2023/08/16 09:08:52;;;;;;;;;;;21.00;70.80;;;;;;5071226;28;19920;-67
2023/08/16 09:11:19;;;;;;;;;;;21.00;70.70;;;;;;5068880;28;19921;-66
2023/08/16 09:13:45;;;;;;;;;;;21.00;70.40;;;;;;5071056;28;19920;-67
2023/08/16 09:16:10;;;;;;;;;;;21.10;70.30;;;;;;5070709;28;20015;-66
2023/08/16 09:18:36;;;;;;;;;;;21.10;70.10;;;;;;5070919;28;19920;-66
2023/08/16 09:21:02;;;;;;;;;;;21.10;69.80;;;;;;5071348;28;19921;-66
2023/08/16 09:23:27;;;;;;;;;;;21.10;69.60;;;;;;5069968;28;20419;-66
2023/08/16 09:25:53;;;;;;;;;;;21.20;70.40;;;;;;5072005;28;19920;-66
2023/08/16 09:28:19;;;;;;;;;;;21.20;69.80;;;;;;5070809;28;19920;-65
2023/08/16 09:30:44;;;;;;;;;;;21.20;69.90;;;;;;5071337;28;19928;-65
2023/08/16 09:33:13;;;;;;;;;;;21.20;70.10;;;;;;5070872;28;20434;-67
2023/08/16 09:35:50;;;;;;;;;;;21.20;70.20;;;;;;5070523;28;19932;-65
2023/08/16 09:38:15;;;;;;;;;;;21.20;70.20;;;;;;5072614;28;19928;-65
2023/08/16 09:40:49;;;;;;;;;;;21.30;70.10;;;;;;5075058;28;19927;-65
2023/08/16 09:43:15;;;;;;;;;;;21.20;70.10;;;;;;5074982;28;19921;-65
2023/08/16 09:45:41;;;;;;;;;;;21.20;70.10;;;;;;5076150;28;20453;-66
2023/08/16 09:48:08;;;;;;;;;;;21.20;70.10;;;;;;5076075;28;19920;-66
2023/08/16 09:50:35;;;;;;;;;;;21.20;70.10;;;;;;5074506;28;20410;-66
2023/08/16 09:53:04;;;;;;;;;;;21.10;70.00;;;;;;5074824;28;20414;-66
2023/08/16 09:55:30;;;;;;;;;;;21.10;70.00;;;;;;5075831;28;19935;-66
2023/08/16 09:57:57;;;;;;;;;;;21.10;70.20;;;;;;5075718;28;20417;-65
2023/08/16 10:00:23;;;;;;;;;;;21.10;70.20;;;;;;5074335;28;20379;-70
2023/08/16 10:02:50;;;;;;;;;;;21.10;70.20;;;;;;5074590;28;20360;-65
2023/08/16 10:05:16;;;;;;;;;;;21.10;70.20;;;;;;5074582;28;19921;-65
2023/08/16 10:07:41;;;;;;;;;;;21.00;70.10;;;;;;5074514;28;19920;-66
2023/08/16 10:10:09;;;;;;;;;;;21.00;70.20;;;;;;5075640;28;19920;-65
2023/08/16 10:12:35;;;;;;;;;;;21.00;70.20;;;;;;5074148;28;19970;-65
2023/08/16 10:15:01;;;;;;;;;;;21.00;70.20;;;;;;5074023;28;19933;-65
2023/08/16 10:17:28;;;;;;;;;;;21.00;70.20;;;;;;5075435;28;19970;-65
2023/08/16 10:19:58;;;;;;;;;;;21.00;70.30;;;;;;5074231;28;19920;-65
2023/08/16 10:22:26;;;;;;;;;;;21.00;70.30;;;;;;5074277;28;20371;-65
2023/08/16 10:24:52;;;;;;;;;;;21.00;70.30;;;;;;5073844;28;19921;-65
2023/08/16 10:27:19;;;;;;;;;;;21.00;70.30;;;;;;5074132;28;20291;-65
2023/08/16 10:29:45;;;;;;;;;;;21.00;71.00;;;;;;5073814;28;20299;-65
2023/08/16 10:32:13;;;;;;;;;;;21.00;70.30;;;;;;5074187;28;19924;-66
2023/08/16 10:34:39;;;;;;;;;;;20.90;70.30;;;;;;5073862;28;20372;-65
2023/08/16 10:37:06;;;;;;;;;;;21.00;70.30;;;;;;5074865;28;19920;-65
2023/08/16 10:39:31;;;;;;;;;;;20.90;70.30;;;;;;5073739;28;20011;-66
2023/08/16 10:42:05;;;;;;;;;;;20.90;70.70;;;;;;5075275;28;20047;-66
2023/08/16 10:44:31;;;;;;;;;;;20.90;70.40;;;;;;5073511;28;20302;-65
2023/08/16 10:46:57;;;;;;;;;;;20.90;70.40;;;;;;5073807;28;20018;-70
2023/08/16 10:49:22;;;;;;;;;;;20.90;70.40;;;;;;5073083;28;19946;-65
2023/08/16 10:51:52;;;;;;;;;;;20.90;70.40;;;;;;5073385;28;19942;-66
2023/08/16 10:54:19;;;;;;;;;;;20.90;70.40;;;;;;5074772;28;20389;-66
2023/08/16 10:56:47;;;;;;;;;;;20.90;70.40;;;;;;5074619;28;20379;-65
2023/08/16 10:59:13;;;;;;;;;;;20.90;70.50;;;;;;5073723;28;19970;-66
2023/08/16 11:01:46;;;;;;;;;;;20.90;70.50;;;;;;5073663;28;19920;-65
2023/08/16 11:04:12;;;;;;;;;;;20.90;70.50;;;;;;5073260;28;19921;-65
2023/08/16 11:06:39;;;;;;;;;;;20.90;70.50;;;;;;5073130;28;19932;-65
2023/08/16 11:09:05;;;;;;;;;;;20.90;70.50;;;;;;5073483;28;19966;-65
2023/08/16 11:11:30;;;;;;;;;;;20.90;70.50;;;;;;5073117;28;19924;-65
2023/08/16 11:13:58;;;;;;;;;;;20.90;70.60;;;;;;5073333;28;19931;-71
2023/08/16 11:16:23;;;;;;;;;;;20.90;70.60;;;;;;5074001;28;19969;-66
2023/08/16 11:18:49;;;;;;;;;;;20.80;70.50;;;;;;5074258;28;20023;-65
2023/08/16 11:21:16;;;;;;;;;;;20.80;70.60;;;;;;5072933;28;19932;-66
2023/08/16 11:23:42;;;;;;;;;;;20.80;70.60;;;;;;5073188;28;20475;-66
2023/08/16 11:26:08;;;;;;;;;;;20.80;70.60;;;;;;5074135;28;19997;-66
2023/08/16 11:28:35;;;;;;;;;;;20.80;70.60;;;;;;5074153;28;19928;-66
2023/08/16 11:31:01;;;;;;;;;;;20.90;70.70;;;;;;5072756;28;19925;-66
2023/08/16 11:33:35;;;;;;;;;;;20.80;70.60;;;;;;5072649;28;19965;-65
2023/08/16 11:36:01;;;;;;;;;;;20.80;70.70;;;;;;5073870;28;19932;-65
2023/08/16 11:38:27;;;;;;;;;;;20.90;70.70;;;;;;5072526;28;19928;-65
2023/08/16 11:40:53;;;;;;;;;;;20.80;70.60;;;;;;5073992;28;19921;-66
2023/08/16 11:43:24;;;;;;;;;;;20.80;70.70;;;;;;5073706;28;19943;-65
2023/08/16 11:45:51;;;;;;;;;;;20.80;70.60;;;;;;5072443;28;19924;-66
2023/08/16 11:48:17;;;;;;;;;;;20.80;70.70;;;;;;5072627;28;19920;-65
2023/08/16 11:50:42;;;;;;;;;;;20.80;70.70;;;;;;5074094;28;19970;-65
2023/08/16 11:53:08;;;;;;;;;;;20.80;70.70;;;;;;5073770;28;19974;-65
2023/08/16 11:55:33;;;;;;;;;;;20.80;70.70;;;;;;5072366;28;20303;-65
2023/08/16 12:00:43;;;;;;;;;;;20.80;70.70;;;;;;5110406;27;19934;-65
2023/08/16 12:03:10;;;;;;;;;;;20.90;70.80;;;;;;5108726;28;20280;-65
2023/08/16 12:05:37;;;;;;;;;;;20.90;70.80;;;;;;5110424;28;20309;-65
2023/08/16 12:08:03;;;;;;;;;;;20.80;70.80;;;;;;5108812;28;19919;-65
2023/08/16 12:10:29;;;;;;;;;;;20.80;70.80;;;;;;5109148;28;20333;-65
2023/08/16 12:12:55;;;;;;;;;;;20.80;70.80;;;;;;5108853;28;19924;-65
2023/08/16 12:15:22;;;;;;;;;;;20.90;70.90;;;;;;5109993;28;20012;-65
2023/08/16 12:17:47;;;;;;;;;;;20.80;70.80;;;;;;5109058;28;20000;-65
2023/08/16 12:20:13;;;;;;;;;;;20.80;70.90;;;;;;5108503;28;19924;-65
2023/08/16 12:22:39;;;;;;;;;;;20.80;70.80;;;;;;5109951;28;19920;-65
2023/08/16 12:25:04;;;;;;;;;;;20.90;70.90;;;;;;5109953;28;19924;-65
2023/08/16 12:27:30;;;;;;;;;;;20.90;71.00;;;;;;5108650;28;20018;-66
2023/08/16 12:29:55;;;;;;;;;;;20.90;71.10;;;;;;5108412;28;19920;-65
2023/08/16 12:32:21;;;;;;;;;;;20.90;71.10;;;;;;5109742;28;19927;-65
2023/08/16 12:34:46;;;;;;;;;;;20.90;71.00;;;;;;5108272;28;19926;-65
2023/08/16 12:37:12;;;;;;;;;;;20.90;71.10;;;;;;5109847;28;19920;-65
2023/08/16 12:39:38;;;;;;;;;;;20.90;71.10;;;;;;5108259;28;20294;-65
2023/08/16 12:42:04;;;;;;;;;;;20.90;71.10;;;;;;5109539;28;19920;-65
2023/08/16 12:44:29;;;;;;;;;;;20.90;71.10;;;;;;5108477;28;20004;-65
2023/08/16 12:46:55;;;;;;;;;;;20.90;71.10;;;;;;5109461;28;20369;-66
2023/08/16 12:49:21;;;;;;;;;;;20.90;71.10;;;;;;5108330;28;20332;-66
2023/08/16 12:51:46;;;;;;;;;;;20.90;71.10;;;;;;5109568;28;19920;-65
2023/08/16 12:54:12;;;;;;;;;;;20.90;71.10;;;;;;5108654;28;20034;-65
2023/08/16 12:56:38;;;;;;;;;;;20.90;71.10;;;;;;5109230;28;19923;-65
2023/08/16 12:59:03;;;;;;;;;;;20.90;71.30;;;;;;5107778;28;20425;-65
2023/08/16 13:01:29;;;;;;;;;;;20.90;71.10;;;;;;5107746;28;19920;-66
2023/08/16 13:03:54;;;;;;;;;;;20.90;71.20;;;;;;5109152;28;19984;-65
2023/08/16 13:06:20;;;;;;;;;;;20.90;71.20;;;;;;5107981;28;19945;-66
2023/08/16 13:08:45;;;;;;;;;;;20.90;71.20;;;;;;5107785;28;19923;-65
2023/08/16 13:11:10;;;;;;;;;;;20.90;71.30;;;;;;5100286;28;19954;-65
2023/08/16 13:13:36;;;;;;;;;;;20.90;71.20;;;;;;5094164;28;19920;-65
2023/08/16 13:16:02;;;;;;;;;;;20.90;71.20;;;;;;5095295;28;19920;-66
2023/08/16 13:18:27;;;;;;;;;;;20.90;71.30;;;;;;5094167;28;20298;-65
2023/08/16 13:20:53;;;;;;;;;;;20.90;71.30;;;;;;5093424;28;19985;-64
2023/08/16 13:23:18;;;;;;;;;;;20.90;71.30;;;;;;5094186;28;19920;-66
2023/08/16 13:25:44;;;;;;;;;;;20.90;71.30;;;;;;5093824;28;19931;-65
2023/08/16 13:28:09;;;;;;;;;;;20.90;71.30;;;;;;5093812;28;20013;-65
2023/08/16 13:30:39;;;;;;;;;;;20.90;71.30;;;;;;5094034;28;19965;-65
2023/08/16 13:33:05;;;;;;;;;;;20.90;71.40;;;;;;5093743;28;19959;-65
2023/08/16 13:35:30;;;;;;;;;;;20.90;71.30;;;;;;5093853;28;19921;-71
2023/08/16 13:37:56;;;;;;;;;;;20.90;71.40;;;;;;5093856;28;19985;-65
2023/08/16 13:40:21;;;;;;;;;;;20.90;71.40;;;;;;5093571;28;19970;-65
2023/08/16 13:42:47;;;;;;;;;;;20.90;71.40;;;;;;5093518;28;20420;-65
2023/08/16 13:45:12;;;;;;;;;;;20.90;71.40;;;;;;5093809;28;19928;-65
2023/08/16 13:47:38;;;;;;;;;;;21.00;71.40;;;;;;5094700;28;20506;-65
2023/08/16 13:50:04;;;;;;;;;;;21.00;71.50;;;;;;5093728;28;19920;-66
2023/08/16 13:52:29;;;;;;;;;;;21.00;71.60;;;;;;5093248;28;20523;-68
2023/08/16 13:54:55;;;;;;;;;;;21.00;71.60;;;;;;5093608;28;19920;-65
2023/08/16 13:57:21;;;;;;;;;;;20.90;71.50;;;;;;5093458;28;19920;-65
2023/08/16 13:59:46;;;;;;;;;;;21.00;71.50;;;;;;5092953;28;19932;-65
2023/08/16 14:02:12;;;;;;;;;;;21.00;71.60;;;;;;5093174;28;19920;-65
2023/08/16 14:04:37;;;;;;;;;;;21.00;71.60;;;;;;5093117;28;20137;-65
2023/08/16 14:07:03;;;;;;;;;;;21.00;71.60;;;;;;5094223;28;19920;-65
2023/08/16 14:09:28;;;;;;;;;;;21.00;71.60;;;;;;5094416;28;19931;-66
2023/08/16 14:11:53;;;;;;;;;;;21.00;71.60;;;;;;5092974;28;19934;-65
2023/08/16 14:14:19;;;;;;;;;;;21.00;71.60;;;;;;5094261;28;20116;-65